KAIZ

Details ICAO KAIZ (AIZ)
Name LEE C FINE MEM
Region United States
Timezone America/Chicago (UTC-5.0)
Plans Departing 1
Arriving 5
Stats Elevation 869 ft / 265 m (AMSL)
Location 38.096033° -92.549476°
Runways 1
Magnetic Variation 0.211° E
Sunrise 2018-05-20 10:57:04 UTC / 2018-05-20 05:57:04 Local
Sunset 2018-05-21 01:19:15 UTC / 2018-05-20 20:19:15 Local
Advertisement - Login to hide

Runways

ID Width Length Bearing (true) Bearing (mag) Surface Threshold Offset Overrun Length
03 100 ft / 30 m 6,500 ft / 1,981 m 36.96° 36.75° Asphalt 0 ft / 0 m 0 ft / 0 m
21 100 ft / 30 m 6,500 ft / 1,981 m 216.96° 216.75° Asphalt 0 ft / 0 m 0 ft / 0 m

Approach Navaids

Runway Type Ident Frequency Range Bearing (true) Bearing (mag) Slope Elevation
21 Localiser AIZ 111.50 MHz 18 nm / 33 km 217.15° 216.94° - 869 ft / 265 m (AMSL)

Map

Weather


0- 5 10 15 20 25 30 35+ Temperature / ° C

Clouds and Precipitation
Forecast for 2018-05-20 12:00 UTC. Updated an hour ago

Ground ~20,000 ft ~40,000 ft Winds

METAR

KAIZ 201156Z AUTO 19003KT 10SM SCT046 BKN060 18/17 A3004 RMK AO2 LTG DSNT W AND NW SLP165 60004 70100 T01780172 10183 20161 55013

TAF

Not found

Frequencies

Recorded 135.32 MHz AWOS 3
Approach 124.10 MHz MIZZU APP/DEP
Unicom 122.80 MHz CTAF/UNICOM
Warning: Do not use this data for real-world aviation or navigation. No guarantee of current accuracy is given.